sensor_id;sensor_type;location;lat;lon;timestamp;pressure;altitude;pressure_sealevel;temperature;humidity
22964;BME280;11648;49.306;6.934;2023-02-14T00:00:47;100200.41;;;8.85;59.71
22964;BME280;11648;49.306;6.934;2023-02-14T00:03:14;100201.94;;;8.75;59.03
22964;BME280;11648;49.306;6.934;2023-02-14T00:05:41;100194.72;;;8.67;60.19
22964;BME280;11648;49.306;6.934;2023-02-14T00:08:08;100198.09;;;8.61;59.92
22964;BME280;11648;49.306;6.934;2023-02-14T00:10:34;100196.28;;;8.59;60.25
22964;BME280;11648;49.306;6.934;2023-02-14T00:13:01;100198.88;;;8.57;60.50
22964;BME280;11648;49.306;6.934;2023-02-14T00:15:28;100197.03;;;8.53;60.14
22964;BME280;11648;49.306;6.934;2023-02-14T00:17:56;100203.97;;;8.51;60.56
22964;BME280;11648;49.306;6.934;2023-02-14T00:20:26;100201.31;;;8.50;59.73
22964;BME280;11648;49.306;6.934;2023-02-14T00:22:53;100201.38;;;8.53;60.38
22964;BME280;11648;49.306;6.934;2023-02-14T00:25:20;100200.41;;;8.49;60.43
22964;BME280;11648;49.306;6.934;2023-02-14T00:27:47;100192.34;;;8.41;59.20
22964;BME280;11648;49.306;6.934;2023-02-14T00:30:14;100200.09;;;8.37;60.65
22964;BME280;11648;49.306;6.934;2023-02-14T00:32:41;100196.47;;;8.32;60.25
22964;BME280;11648;49.306;6.934;2023-02-14T00:35:09;100196.31;;;8.26;60.96
22964;BME280;11648;49.306;6.934;2023-02-14T00:37:39;100190.94;;;8.23;60.84
22964;BME280;11648;49.306;6.934;2023-02-14T00:40:07;100192.66;;;8.21;61.20
22964;BME280;11648;49.306;6.934;2023-02-14T00:42:34;100195.34;;;8.22;60.27
22964;BME280;11648;49.306;6.934;2023-02-14T00:45:00;100199.75;;;8.25;61.43
22964;BME280;11648;49.306;6.934;2023-02-14T00:47:27;100196.25;;;8.24;60.74
22964;BME280;11648;49.306;6.934;2023-02-14T00:49:54;100196.94;;;8.17;60.45
22964;BME280;11648;49.306;6.934;2023-02-14T00:52:20;100186.44;;;8.17;61.24
22964;BME280;11648;49.306;6.934;2023-02-14T00:54:48;100185.69;;;8.21;61.37
22964;BME280;11648;49.306;6.934;2023-02-14T00:57:14;100183.06;;;8.23;61.54
22964;BME280;11648;49.306;6.934;2023-02-14T00:59:41;100179.59;;;8.24;60.89
22964;BME280;11648;49.306;6.934;2023-02-14T01:02:08;100179.47;;;8.18;60.87
22964;BME280;11648;49.306;6.934;2023-02-14T01:04:34;100183.75;;;8.16;61.15
22964;BME280;11648;49.306;6.934;2023-02-14T01:07:02;100183.75;;;8.16;61.37
22964;BME280;11648;49.306;6.934;2023-02-14T01:09:28;100172.28;;;8.11;61.59
22964;BME280;11648;49.306;6.934;2023-02-14T01:11:55;100177.53;;;8.11;61.79
22964;BME280;11648;49.306;6.934;2023-02-14T01:14:22;100180.97;;;8.08;61.92
22964;BME280;11648;49.306;6.934;2023-02-14T01:16:48;100183.53;;;8.07;61.47
22964;BME280;11648;49.306;6.934;2023-02-14T01:19:15;100181.75;;;8.06;61.97
22964;BME280;11648;49.306;6.934;2023-02-14T01:21:42;100181.59;;;8.00;61.00
22964;BME280;11648;49.306;6.934;2023-02-14T01:24:11;100181.59;;;8.00;61.54
22964;BME280;11648;49.306;6.934;2023-02-14T01:26:40;100185.13;;;8.02;62.43
22964;BME280;11648;49.306;6.934;2023-02-14T01:29:07;100181.00;;;8.10;62.89
22964;BME280;11648;49.306;6.934;2023-02-14T01:31:35;100183.75;;;8.16;62.89
22964;BME280;11648;49.306;6.934;2023-02-14T01:34:02;100191.56;;;8.13;62.79
22964;BME280;11648;49.306;6.934;2023-02-14T01:36:32;100188.09;;;8.14;62.84
22964;BME280;11648;49.306;6.934;2023-02-14T01:39:02;100181.88;;;8.10;61.95
22964;BME280;11648;49.306;6.934;2023-02-14T01:41:33;100179.97;;;8.05;62.38
22964;BME280;11648;49.306;6.934;2023-02-14T01:46:42;100182.31;;;7.94;62.78
22964;BME280;11648;49.306;6.934;2023-02-14T01:49:25;100175.31;;;7.94;63.04
22964;BME280;11648;49.306;6.934;2023-02-14T01:54:31;100170.28;;;8.01;63.88
22964;BME280;11648;49.306;6.934;2023-02-14T01:57:01;100171.09;;;8.00;63.87
22964;BME280;11648;49.306;6.934;2023-02-14T01:59:34;100169.16;;;7.92;62.88
22964;BME280;11648;49.306;6.934;2023-02-14T02:02:02;100168.91;;;7.83;62.38
22964;BME280;11648;49.306;6.934;2023-02-14T02:04:38;100171.44;;;7.80;63.00
22964;BME280;11648;49.306;6.934;2023-02-14T02:07:10;100171.50;;;7.82;63.16
22964;BME280;11648;49.306;6.934;2023-02-14T02:09:48;100171.50;;;7.82;62.96
22964;BME280;11648;49.306;6.934;2023-02-14T02:12:17;100173.38;;;7.86;63.54
22964;BME280;11648;49.306;6.934;2023-02-14T02:14:44;100166.47;;;7.89;63.57
22964;BME280;11648;49.306;6.934;2023-02-14T02:20:57;100166.34;;;7.85;62.83
22964;BME280;11648;49.306;6.934;2023-02-14T02:38:09;100172.78;;;7.65;63.77
22964;BME280;11648;49.306;6.934;2023-02-14T02:40:46;100170.19;;;7.66;63.64
22964;BME280;11648;49.306;6.934;2023-02-14T02:45:54;100169.28;;;7.66;63.06
22964;BME280;11648;49.306;6.934;2023-02-14T02:48:56;100164.69;;;7.57;63.05
22964;BME280;11648;49.306;6.934;2023-02-14T02:51:34;100160.44;;;7.61;62.94
22964;BME280;11648;49.306;6.934;2023-02-14T02:54:43;100164.50;;;7.51;63.29
22964;BME280;11648;49.306;6.934;2023-02-14T02:57:17;100167.84;;;7.45;63.41
22964;BME280;11648;49.306;6.934;2023-02-14T02:59:48;100165.84;;;7.37;63.51
22964;BME280;11648;49.306;6.934;2023-02-14T03:02:24;100172.69;;;7.32;63.94
22964;BME280;11648;49.306;6.934;2023-02-14T03:04:56;100169.94;;;7.27;64.08
22964;BME280;11648;49.306;6.934;2023-02-14T03:10:23;100172.50;;;7.26;63.37
22964;BME280;11648;49.306;6.934;2023-02-14T03:27:11;100168.53;;;7.38;64.90
22964;BME280;11648;49.306;6.934;2023-02-14T03:29:55;100158.13;;;7.41;65.11
22964;BME280;11648;49.306;6.934;2023-02-14T03:32:37;100164.41;;;7.47;65.92
22964;BME280;11648;49.306;6.934;2023-02-14T03:42:59;100157.44;;;7.49;66.51
22964;BME280;11648;49.306;6.934;2023-02-14T03:45:38;100160.97;;;7.49;66.51
22964;BME280;11648;49.306;6.934;2023-02-14T03:48:10;100156.75;;;7.54;66.55
22964;BME280;11648;49.306;6.934;2023-02-14T03:50:41;100158.59;;;7.58;66.22
22964;BME280;11648;49.306;6.934;2023-02-14T03:53:10;100157.91;;;7.65;66.28
22964;BME280;11648;49.306;6.934;2023-02-14T03:56:07;100149.06;;;7.60;66.41
22964;BME280;11648;49.306;6.934;2023-02-14T03:58:38;100153.47;;;7.63;66.14
22964;BME280;11648;49.306;6.934;2023-02-14T04:01:54;100153.53;;;7.64;66.04
22964;BME280;11648;49.306;6.934;2023-02-14T04:04:00;100157.06;;;7.65;66.51
22964;BME280;11648;49.306;6.934;2023-02-14T04:06:28;100151.88;;;7.68;66.75
22964;BME280;11648;49.306;6.934;2023-02-14T04:08:55;100153.63;;;7.67;66.81
22964;BME280;11648;49.306;6.934;2023-02-14T04:11:21;100158.78;;;7.64;66.86
22964;BME280;11648;49.306;6.934;2023-02-14T04:13:50;100161.50;;;7.69;66.90
22964;BME280;11648;49.306;6.934;2023-02-14T04:16:16;100159.00;;;7.72;66.61
22964;BME280;11648;49.306;6.934;2023-02-14T04:18:43;100163.28;;;7.70;66.78
22964;BME280;11648;49.306;6.934;2023-02-14T04:21:28;100162.38;;;7.68;66.07
22964;BME280;11648;49.306;6.934;2023-02-14T04:23:55;100174.63;;;7.69;65.78
22964;BME280;11648;49.306;6.934;2023-02-14T04:26:22;100178.22;;;7.72;67.02
22964;BME280;11648;49.306;6.934;2023-02-14T04:28:48;100166.81;;;7.70;66.42
22964;BME280;11648;49.306;6.934;2023-02-14T04:31:15;100169.47;;;7.72;66.25
22964;BME280;11648;49.306;6.934;2023-02-14T04:33:43;100161.47;;;7.67;65.35
22964;BME280;11648;49.306;6.934;2023-02-14T04:36:11;100171.97;;;7.67;66.42
22964;BME280;11648;49.306;6.934;2023-02-14T04:38:38;100164.84;;;7.63;65.98
22964;BME280;11648;49.306;6.934;2023-02-14T04:41:05;100163.97;;;7.63;66.74
22964;BME280;11648;49.306;6.934;2023-02-14T04:43:31;100160.44;;;7.61;66.29
22964;BME280;11648;49.306;6.934;2023-02-14T04:45:58;100165.59;;;7.58;66.52
22964;BME280;11648;49.306;6.934;2023-02-14T04:48:25;100165.47;;;7.55;66.35
22964;BME280;11648;49.306;6.934;2023-02-14T04:50:53;100167.09;;;7.50;66.71
22964;BME280;11648;49.306;6.934;2023-02-14T04:53:20;100165.31;;;7.49;66.80
22964;BME280;11648;49.306;6.934;2023-02-14T04:55:48;100161.81;;;7.48;66.76
22964;BME280;11648;49.306;6.934;2023-02-14T04:58:15;100165.16;;;7.42;66.80
22964;BME280;11648;49.306;6.934;2023-02-14T05:00:42;100160.56;;;7.35;67.05
22964;BME280;11648;49.306;6.934;2023-02-14T05:03:09;100148.38;;;7.36;67.42
22964;BME280;11648;49.306;6.934;2023-02-14T05:05:35;100151.00;;;7.36;67.15
22964;BME280;11648;49.306;6.934;2023-02-14T05:08:02;100157.06;;;7.35;67.61
22964;BME280;11648;49.306;6.934;2023-02-14T05:10:29;100152.66;;;7.34;67.23
22964;BME280;11648;49.306;6.934;2023-02-14T05:12:55;100157.97;;;7.37;67.45
22964;BME280;11648;49.306;6.934;2023-02-14T05:15:22;100158.84;;;7.36;66.94
22964;BME280;11648;49.306;6.934;2023-02-14T05:17:49;100154.38;;;7.33;67.31
22964;BME280;11648;49.306;6.934;2023-02-14T05:20:15;100156.00;;;7.28;66.82
22964;BME280;11648;49.306;6.934;2023-02-14T05:22:42;100166.09;;;7.16;67.86
22964;BME280;11648;49.306;6.934;2023-02-14T05:25:09;100155.63;;;7.16;67.80
22964;BME280;11648;49.306;6.934;2023-02-14T05:27:35;100151.50;;;7.24;67.55
22964;BME280;11648;49.306;6.934;2023-02-14T05:30:05;100144.56;;;7.25;67.53
22964;BME280;11648;49.306;6.934;2023-02-14T05:32:32;100154.78;;;7.17;67.74
22964;BME280;11648;49.306;6.934;2023-02-14T05:34:59;100154.94;;;7.22;67.67
22964;BME280;11648;49.306;6.934;2023-02-14T05:37:27;100150.47;;;7.18;67.97
22964;BME280;11648;49.306;6.934;2023-02-14T05:39:53;100156.66;;;7.21;67.73
22964;BME280;11648;49.306;6.934;2023-02-14T05:42:20;100162.56;;;7.14;67.82
22964;BME280;11648;49.306;6.934;2023-02-14T05:44:47;100152.13;;;7.16;67.97
22964;BME280;11648;49.306;6.934;2023-02-14T05:47:14;100161.84;;;7.20;68.13
22964;BME280;11648;49.306;6.934;2023-02-14T05:49:41;100154.06;;;7.21;68.03
22964;BME280;11648;49.306;6.934;2023-02-14T05:52:08;100156.69;;;7.23;67.58
22964;BME280;11648;49.306;6.934;2023-02-14T05:54:35;100155.81;;;7.22;67.74
22964;BME280;11648;49.306;6.934;2023-02-14T05:57:02;100157.41;;;7.17;67.85
22964;BME280;11648;49.306;6.934;2023-02-14T05:59:28;100154.13;;;7.24;67.46
22964;BME280;11648;49.306;6.934;2023-02-14T06:01:55;100154.06;;;7.23;67.65
22964;BME280;11648;49.306;6.934;2023-02-14T06:04:22;100150.56;;;7.22;67.66
22964;BME280;11648;49.306;6.934;2023-02-14T06:06:48;100156.78;;;7.26;67.49
22964;BME280;11648;49.306;6.934;2023-02-14T06:09:15;100150.72;;;7.27;67.51
22964;BME280;11648;49.306;6.934;2023-02-14T06:11:42;100148.16;;;7.30;67.50
22964;BME280;11648;49.306;6.934;2023-02-14T06:14:08;100152.50;;;7.29;67.18
22964;BME280;11648;49.306;6.934;2023-02-14T06:16:35;100152.44;;;7.26;66.98
22964;BME280;11648;49.306;6.934;2023-02-14T06:19:02;100153.19;;;7.22;66.80
22964;BME280;11648;49.306;6.934;2023-02-14T06:21:29;100159.22;;;7.20;66.79
22964;BME280;11648;49.306;6.934;2023-02-14T06:23:56;100163.66;;;7.22;66.94
22964;BME280;11648;49.306;6.934;2023-02-14T06:26:22;100158.41;;;7.22;66.74
22964;BME280;11648;49.306;6.934;2023-02-14T06:28:57;100168.06;;;7.23;66.24
22964;BME280;11648;49.306;6.934;2023-02-14T06:31:24;100161.09;;;7.24;66.89
22964;BME280;11648;49.306;6.934;2023-02-14T06:33:52;100163.63;;;7.21;67.24
22964;BME280;11648;49.306;6.934;2023-02-14T06:36:20;100161.94;;;7.23;66.92
22964;BME280;11648;49.306;6.934;2023-02-14T06:38:47;100168.78;;;7.18;67.34
22964;BME280;11648;49.306;6.934;2023-02-14T06:41:15;100173.16;;;7.19;67.45
22964;BME280;11648;49.306;6.934;2023-02-14T06:43:46;100175.91;;;7.22;66.66
22964;BME280;11648;49.306;6.934;2023-02-14T06:46:17;100173.13;;;7.17;67.04
22964;BME280;11648;49.306;6.934;2023-02-14T06:48:44;100180.91;;;7.14;67.51
22964;BME280;11648;49.306;6.934;2023-02-14T06:51:11;100182.72;;;7.17;66.93
22964;BME280;11648;49.306;6.934;2023-02-14T06:53:39;100180.03;;;7.15;67.36
22964;BME280;11648;49.306;6.934;2023-02-14T06:56:06;100186.88;;;7.10;67.22
22964;BME280;11648;49.306;6.934;2023-02-14T06:58:33;100181.09;;;6.93;67.83
22964;BME280;11648;49.306;6.934;2023-02-14T07:01:00;100172.84;;;7.08;67.70
22964;BME280;11648;49.306;6.934;2023-02-14T07:03:27;100173.06;;;7.16;67.32
22964;BME280;11648;49.306;6.934;2023-02-14T07:05:56;100167.75;;;7.13;66.74
22964;BME280;11648;49.306;6.934;2023-02-14T07:08:23;100160.19;;;7.22;66.55
22964;BME280;11648;49.306;6.934;2023-02-14T07:10:55;100167.81;;;7.14;66.65
22964;BME280;11648;49.306;6.934;2023-02-14T07:13:23;100167.91;;;7.17;66.62
22964;BME280;11648;49.306;6.934;2023-02-14T07:15:50;100157.41;;;7.17;66.77
22964;BME280;11648;49.306;6.934;2023-02-14T07:18:17;100160.97;;;7.19;67.03
22964;BME280;11648;49.306;6.934;2023-02-14T07:20:44;100171.94;;;7.08;67.38
22964;BME280;11648;49.306;6.934;2023-02-14T07:23:11;100165.41;;;7.22;66.96
22964;BME280;11648;49.306;6.934;2023-02-14T07:25:38;100167.47;;;7.32;66.63
22964;BME280;11648;49.306;6.934;2023-02-14T07:28:06;100165.41;;;7.52;66.25
22964;BME280;11648;49.306;6.934;2023-02-14T07:30:33;100168.59;;;7.71;66.25
22964;BME280;11648;49.306;6.934;2023-02-14T07:33:00;100168.41;;;7.65;66.10
22964;BME280;11648;49.306;6.934;2023-02-14T07:35:27;100174.38;;;7.91;65.87
22964;BME280;11648;49.306;6.934;2023-02-14T07:37:54;100175.88;;;8.14;65.22
22964;BME280;11648;49.306;6.934;2023-02-14T07:40:20;100170.25;;;8.33;64.51
22964;BME280;11648;49.306;6.934;2023-02-14T07:42:54;100176.47;;;8.71;63.34
22964;BME280;11648;49.306;6.934;2023-02-14T07:45:22;100165.13;;;9.11;61.88
22964;BME280;11648;49.306;6.934;2023-02-14T07:47:51;100161.09;;;9.70;60.59
22964;BME280;11648;49.306;6.934;2023-02-14T07:50:18;100159.81;;;10.40;58.52
22964;BME280;11648;49.306;6.934;2023-02-14T07:52:45;100153.28;;;10.71;56.87
22964;BME280;11648;49.306;6.934;2023-02-14T07:55:12;100153.69;;;10.95;55.57
22964;BME280;11648;49.306;6.934;2023-02-14T07:57:39;100147.34;;;11.46;54.77
22964;BME280;11648;49.306;6.934;2023-02-14T08:00:06;100153.22;;;11.97;52.67
22964;BME280;11648;49.306;6.934;2023-02-14T08:02:37;100147.50;;;12.44;51.33
22964;BME280;11648;49.306;6.934;2023-02-14T08:05:04;100135.59;;;13.02;50.13
22964;BME280;11648;49.306;6.934;2023-02-14T08:07:31;100134.78;;;13.07;49.19
22964;BME280;11648;49.306;6.934;2023-02-14T08:09:57;100129.53;;;13.15;48.97
22964;BME280;11648;49.306;6.934;2023-02-14T08:12:24;100127.78;;;13.15;48.79
22964;BME280;11648;49.306;6.934;2023-02-14T08:15:12;100126.16;;;13.45;48.47
22964;BME280;11648;49.306;6.934;2023-02-14T08:17:58;100120.84;;;13.39;48.28
22964;BME280;11648;49.306;6.934;2023-02-14T08:20:24;100127.84;;;13.24;48.18
22964;BME280;11648;49.306;6.934;2023-02-14T08:22:51;100127.59;;;12.88;48.96
22964;BME280;11648;49.306;6.934;2023-02-14T08:25:18;100120.09;;;13.74;48.18
22964;BME280;11648;49.306;6.934;2023-02-14T08:27:44;100106.97;;;14.26;46.41
22964;BME280;11648;49.306;6.934;2023-02-14T08:30:11;100111.41;;;14.36;45.76
22964;BME280;11648;49.306;6.934;2023-02-14T08:32:38;100107.81;;;14.04;46.01
22964;BME280;11648;49.306;6.934;2023-02-14T08:35:06;100106.00;;;13.81;46.60
22964;BME280;11648;49.306;6.934;2023-02-14T08:37:33;100107.81;;;14.07;46.08
22964;BME280;11648;49.306;6.934;2023-02-14T08:39:59;100102.56;;;14.34;46.09
22964;BME280;11648;49.306;6.934;2023-02-14T08:42:26;100098.97;;;14.90;44.79
22964;BME280;11648;49.306;6.934;2023-02-14T08:44:52;100104.31;;;14.71;44.87
22964;BME280;11648;49.306;6.934;2023-02-14T08:47:19;100100.63;;;15.33;43.77
22964;BME280;11648;49.306;6.934;2023-02-14T08:49:46;100093.38;;;15.76;42.84
22964;BME280;11648;49.306;6.934;2023-02-14T08:52:13;100076.31;;;17.06;40.23
22964;BME280;11648;49.306;6.934;2023-02-14T08:54:39;100063.97;;;18.29;37.63
22964;BME280;11648;49.306;6.934;2023-02-14T08:57:06;100058.22;;;19.02;36.09
22964;BME280;11648;49.306;6.934;2023-02-14T08:59:33;100064.16;;;19.18;35.96
22964;BME280;11648;49.306;6.934;2023-02-14T09:01:59;100076.28;;;19.34;35.94
22964;BME280;11648;49.306;6.934;2023-02-14T09:04:26;100084.84;;;19.07;36.25
22964;BME280;11648;49.306;6.934;2023-02-14T09:06:53;100075.56;;;18.80;36.51
22964;BME280;11648;49.306;6.934;2023-02-14T09:09:20;100080.06;;;19.67;35.39
22964;BME280;11648;49.306;6.934;2023-02-14T09:11:46;100082.34;;;19.84;34.63
22964;BME280;11648;49.306;6.934;2023-02-14T09:14:13;100079.00;;;20.12;34.16
22964;BME280;11648;49.306;6.934;2023-02-14T09:16:42;100069.97;;;20.87;33.22
22964;BME280;11648;49.306;6.934;2023-02-14T09:19:10;100077.06;;;21.82;32.08
22964;BME280;11648;49.306;6.934;2023-02-14T09:21:36;100066.56;;;22.32;30.81
22964;BME280;11648;49.306;6.934;2023-02-14T09:24:03;100069.03;;;23.15;29.85
22964;BME280;11648;49.306;6.934;2023-02-14T09:26:30;100049.00;;;25.00;28.32
22964;BME280;11648;49.306;6.934;2023-02-14T09:28:58;100049.84;;;25.41;25.86
22964;BME280;11648;49.306;6.934;2023-02-14T09:31:24;100053.53;;;25.78;25.69
22964;BME280;11648;49.306;6.934;2023-02-14T09:33:51;100041.63;;;26.55;25.00
22964;BME280;11648;49.306;6.934;2023-02-14T09:36:18;100043.22;;;26.59;25.02
22964;BME280;11648;49.306;6.934;2023-02-14T09:39:03;100049.13;;;27.01;23.99
22964;BME280;11648;49.306;6.934;2023-02-14T09:42:19;100060.56;;;25.43;26.00
22964;BME280;11648;49.306;6.934;2023-02-14T09:49:44;100038.97;;;28.04;22.71
22964;BME280;11648;49.306;6.934;2023-02-14T09:52:15;100043.31;;;29.13;22.36
22964;BME280;11648;49.306;6.934;2023-02-14T09:54:48;100044.13;;;29.57;21.21
22964;BME280;11648;49.306;6.934;2023-02-14T09:57:27;100039.84;;;30.63;20.80
22964;BME280;11648;49.306;6.934;2023-02-14T10:03:04;100050.66;;;31.42;19.63
22964;BME280;11648;49.306;6.934;2023-02-14T10:06:01;100052.06;;;31.48;19.38
22964;BME280;11648;49.306;6.934;2023-02-14T10:11:22;100055.66;;;31.10;19.38
22964;BME280;11648;49.306;6.934;2023-02-14T10:14:02;100054.13;;;31.82;18.50
22964;BME280;11648;49.306;6.934;2023-02-14T10:16:32;100056.88;;;31.31;19.06
22964;BME280;11648;49.306;6.934;2023-02-14T10:19:16;100058.59;;;31.58;18.81
22964;BME280;11648;49.306;6.934;2023-02-14T10:22:00;100053.91;;;31.72;18.54
22964;BME280;11648;49.306;6.934;2023-02-14T10:24:34;100054.91;;;31.59;18.77
22964;BME280;11648;49.306;6.934;2023-02-14T10:29:56;100064.28;;;30.51;19.71
22964;BME280;11648;49.306;6.934;2023-02-14T10:32:34;100054.22;;;30.65;19.66
22964;BME280;11648;49.306;6.934;2023-02-14T10:38:09;100044.34;;;30.77;18.96
22964;BME280;11648;49.306;6.934;2023-02-14T10:41:08;100046.72;;;31.21;18.56
22964;BME280;11648;49.306;6.934;2023-02-14T10:46:26;100044.16;;;31.94;18.41
22964;BME280;11648;49.306;6.934;2023-02-14T10:51:46;100030.88;;;32.97;18.00
22964;BME280;11648;49.306;6.934;2023-02-14T10:54:16;100037.47;;;31.49;18.05
22964;BME280;11648;49.306;6.934;2023-02-14T10:57:03;100021.56;;;32.17;17.94
22964;BME280;11648;49.306;6.934;2023-02-14T11:02:05;100016.56;;;33.28;16.91
22964;BME280;11648;49.306;6.934;2023-02-14T11:04:34;100020.72;;;32.64;17.44
22964;BME280;11648;49.306;6.934;2023-02-14T11:07:01;100025.94;;;31.58;18.67
22964;BME280;11648;49.306;6.934;2023-02-14T11:09:28;100024.69;;;31.87;17.85
22964;BME280;11648;49.306;6.934;2023-02-14T11:11:58;100012.44;;;32.65;17.70
22964;BME280;11648;49.306;6.934;2023-02-14T11:14:28;100016.22;;;33.55;17.01
22964;BME280;11648;49.306;6.934;2023-02-14T11:16:58;100012.75;;;33.64;17.09
22964;BME280;11648;49.306;6.934;2023-02-14T11:19:32;100002.16;;;34.15;16.43
22964;BME280;11648;49.306;6.934;2023-02-14T11:22:03;100000.44;;;33.25;16.98
22964;BME280;11648;49.306;6.934;2023-02-14T11:24:35;99989.38;;;34.04;16.70
22964;BME280;11648;49.306;6.934;2023-02-14T11:35:16;99971.88;;;35.63;15.18
22964;BME280;11648;49.306;6.934;2023-02-14T11:37:51;99969.94;;;36.03;14.66
22964;BME280;11648;49.306;6.934;2023-02-14T11:40:29;99974.16;;;35.28;15.41
22964;BME280;11648;49.306;6.934;2023-02-14T11:42:59;99960.78;;;36.43;14.86
22964;BME280;11648;49.306;6.934;2023-02-14T11:45:45;99957.50;;;35.80;15.11
22964;BME280;11648;49.306;6.934;2023-02-14T11:48:26;99953.94;;;35.59;15.14
22964;BME280;11648;49.306;6.934;2023-02-14T11:51:13;99958.19;;;34.91;15.40
22964;BME280;11648;49.306;6.934;2023-02-14T11:53:47;99953.66;;;35.32;15.27
22964;BME280;11648;49.306;6.934;2023-02-14T11:56:15;99935.31;;;36.98;14.46
22964;BME280;11648;49.306;6.934;2023-02-14T12:01:23;99915.47;;;38.05;13.43
22964;BME280;11648;49.306;6.934;2023-02-14T12:03:52;99916.16;;;36.22;14.59
22964;BME280;11648;49.306;6.934;2023-02-14T12:06:23;99920.34;;;36.26;14.65
22964;BME280;11648;49.306;6.934;2023-02-14T12:08:51;99919.06;;;35.00;15.36
22964;BME280;11648;49.306;6.934;2023-02-14T12:13:55;99914.59;;;34.79;15.22
22964;BME280;11648;49.306;6.934;2023-02-14T12:16:27;99912.81;;;33.50;16.32
22964;BME280;11648;49.306;6.934;2023-02-14T12:19:07;99909.03;;;32.85;17.04
22964;BME280;11648;49.306;6.934;2023-02-14T12:22:03;99905.53;;;33.94;16.13
22964;BME280;11648;49.306;6.934;2023-02-14T12:24:43;99895.09;;;33.34;16.68
22964;BME280;11648;49.306;6.934;2023-02-14T12:29:58;99895.56;;;31.90;17.60
22964;BME280;11648;49.306;6.934;2023-02-14T12:32:30;99896.16;;;32.06;17.55
22964;BME280;11648;49.306;6.934;2023-02-14T12:35:02;99893.91;;;31.63;17.93
22964;BME280;11648;49.306;6.934;2023-02-14T12:37:39;99892.69;;;30.93;18.61
22964;BME280;11648;49.306;6.934;2023-02-14T12:40:27;99892.84;;;29.18;20.20
22964;BME280;11648;49.306;6.934;2023-02-14T12:43:21;99887.66;;;27.68;21.57
22964;BME280;11648;49.306;6.934;2023-02-14T12:45:57;99886.97;;;27.48;21.96
22964;BME280;11648;49.306;6.934;2023-02-14T12:51:25;99882.75;;;24.82;24.77
22964;BME280;11648;49.306;6.934;2023-02-14T12:54:26;99887.75;;;23.69;26.14
22964;BME280;11648;49.306;6.934;2023-02-14T13:05:39;99884.00;;;21.56;28.83
22964;BME280;11648;49.306;6.934;2023-02-14T13:19:02;99860.66;;;21.04;29.98
22964;BME280;11648;49.306;6.934;2023-02-14T13:21:34;99865.22;;;20.71;29.75
22964;BME280;11648;49.306;6.934;2023-02-14T13:24:13;99856.28;;;20.72;29.73
22964;BME280;11648;49.306;6.934;2023-02-14T13:26:42;99848.19;;;20.74;29.83
22964;BME280;11648;49.306;6.934;2023-02-14T13:29:19;99845.91;;;20.61;30.51
22964;BME280;11648;49.306;6.934;2023-02-14T13:31:50;99849.22;;;20.39;30.12
22964;BME280;11648;49.306;6.934;2023-02-14T13:36:59;99838.88;;;20.25;30.35
22964;BME280;11648;49.306;6.934;2023-02-14T13:39:34;99829.38;;;19.83;30.76
22964;BME280;11648;49.306;6.934;2023-02-14T13:42:05;99834.13;;;19.71;30.67
22964;BME280;11648;49.306;6.934;2023-02-14T13:47:16;99835.06;;;19.69;31.19
22964;BME280;11648;49.306;6.934;2023-02-14T13:49:53;99836.47;;;19.50;31.28
22964;BME280;11648;49.306;6.934;2023-02-14T13:52:44;99832.97;;;19.46;31.38
22964;BME280;11648;49.306;6.934;2023-02-14T13:55:17;99826.41;;;19.59;31.19
22964;BME280;11648;49.306;6.934;2023-02-14T13:58:02;99833.13;;;19.39;31.38
22964;BME280;11648;49.306;6.934;2023-02-14T14:00:39;99831.31;;;19.42;31.31
22964;BME280;11648;49.306;6.934;2023-02-14T14:03:11;99831.44;;;19.35;30.95
22964;BME280;11648;49.306;6.934;2023-02-14T14:21:32;99819.47;;;19.52;29.60
22964;BME280;11648;49.306;6.934;2023-02-14T14:27:00;99819.19;;;19.26;29.91
22964;BME280;11648;49.306;6.934;2023-02-14T14:29:33;99814.53;;;19.34;29.42
22964;BME280;11648;49.306;6.934;2023-02-14T14:32:23;99813.50;;;19.43;30.27
22964;BME280;11648;49.306;6.934;2023-02-14T14:34:52;99816.22;;;19.38;29.57
22964;BME280;11648;49.306;6.934;2023-02-14T14:37:22;99810.81;;;19.43;29.68
22964;BME280;11648;49.306;6.934;2023-02-14T14:39:51;99819.19;;;19.63;29.27
22964;BME280;11648;49.306;6.934;2023-02-14T14:42:20;99810.47;;;19.56;29.78
22964;BME280;11648;49.306;6.934;2023-02-14T14:44:58;99812.28;;;19.54;29.60
22964;BME280;11648;49.306;6.934;2023-02-14T14:47:33;99812.28;;;19.54;29.63
22964;BME280;11648;49.306;6.934;2023-02-14T14:50:06;99811.06;;;19.67;29.58
22964;BME280;11648;49.306;6.934;2023-02-14T14:52:40;99815.63;;;19.62;29.61
22964;BME280;11648;49.306;6.934;2023-02-14T14:55:19;99806.09;;;19.54;29.79
22964;BME280;11648;49.306;6.934;2023-02-14T14:57:53;99802.81;;;19.41;29.72
22964;BME280;11648;49.306;6.934;2023-02-14T15:00:30;99806.19;;;19.49;29.87
22964;BME280;11648;49.306;6.934;2023-02-14T15:08:13;99805.03;;;19.22;29.68
22964;BME280;11648;49.306;6.934;2023-02-14T15:10:41;99806.97;;;19.16;30.36
22964;BME280;11648;49.306;6.934;2023-02-14T15:13:11;99802.69;;;19.10;30.15
22964;BME280;11648;49.306;6.934;2023-02-14T15:15:58;99799.41;;;18.98;30.34
22964;BME280;11648;49.306;6.934;2023-02-14T15:18:28;99806.44;;;19.02;30.04
22964;BME280;11648;49.306;6.934;2023-02-14T15:20:54;99805.09;;;18.83;31.56
22964;BME280;11648;49.306;6.934;2023-02-14T15:23:23;99809.03;;;18.66;32.00
22964;BME280;11648;49.306;6.934;2023-02-14T15:25:50;99804.66;;;18.64;32.50
22964;BME280;11648;49.306;6.934;2023-02-14T15:28:33;99803.69;;;18.66;32.74
22964;BME280;11648;49.306;6.934;2023-02-14T15:31:02;99800.88;;;18.72;32.67
22964;BME280;11648;49.306;6.934;2023-02-14T15:33:31;99811.47;;;18.75;33.12
22964;BME280;11648;49.306;6.934;2023-02-14T15:36:05;99812.81;;;18.56;33.52
22964;BME280;11648;49.306;6.934;2023-02-14T15:38:39;99812.22;;;18.41;33.57
22964;BME280;11648;49.306;6.934;2023-02-14T15:41:08;99808.94;;;18.28;34.05